Terminal Aerodrome Forecast
Issued by NWS

Current Version | Previous Version | Graphics & Text | Print | Product List | Glossary On
Versions: 1 2 3 4 5 6 7 8 9 10 11 12 13 14 15 16 17 18 19 20 21 22 23 24 25 26 27 28 29 30
000
FTUS41 KILN 290300 AAA
TAFLCK
TAF AMD
KLCK 290351Z 2904/2924 14003KT P6SM FEW200 OVC250
     FM291200 14008KT P6SM VCSH SCT025 BKN060 OVC120
      TEMPO 2912/2914 4SM -FZRA OVC025
     FM291500 19012G20KT P6SM -RA SCT025 OVC040
     FM291700 20014G21KT 4SM -RA BR SCT010 OVC025
     FM292000 25017G27KT P6SM VCSH OVC025=

USA.gov is the U.S. government's official web portal to all federal, state and local government web resources and services.